createdAt,value
2019-05-06T00:00:05.095Z,93.30
2019-05-06T00:02:34.225Z,93.60
2019-05-06T00:05:04.115Z,93.90
2019-05-06T00:07:33.987Z,94.20
2019-05-06T00:10:05.394Z,94.60
2019-05-06T00:12:33.830Z,94.50
2019-05-06T00:15:04.011Z,94.40
2019-05-06T00:17:34.896Z,94.40
2019-05-06T00:20:04.605Z,94.30
2019-05-06T00:22:34.346Z,94.40
2019-05-06T00:25:11.022Z,94.30
2019-05-06T00:27:43.561Z,94.40
2019-05-06T00:30:14.835Z,94.70
2019-05-06T00:32:44.259Z,94.60
2019-05-06T00:35:14.218Z,94.60
2019-05-06T00:37:44.240Z,94.80
2019-05-06T00:40:14.987Z,95.00
2019-05-06T00:42:48.797Z,95.00
2019-05-06T00:45:17.889Z,95.00
2019-05-06T00:47:46.986Z,95.50
2019-05-06T00:50:17.825Z,95.30
2019-05-06T00:52:47.224Z,95.30
2019-05-06T00:55:16.324Z,94.90
2019-05-06T00:57:45.423Z,94.70
2019-05-06T01:00:17.084Z,94.30
2019-05-06T01:02:46.274Z,94.50
2019-05-06T01:05:15.641Z,94.20
2019-05-06T01:07:44.673Z,93.80
2019-05-06T01:10:14.895Z,93.40
2019-05-06T01:12:45.548Z,93.00
2019-05-06T01:15:17.597Z,92.90
2019-05-06T01:17:46.688Z,92.80
2019-05-06T01:20:16.072Z,92.80
2019-05-06T01:22:44.941Z,92.80
2019-05-06T01:25:14.661Z,93.00
2019-05-06T01:27:44.454Z,93.20
2019-05-06T01:30:14.116Z,93.00
2019-05-06T01:32:43.599Z,93.80
2019-05-06T01:35:14.147Z,93.50
2019-05-06T01:37:46.218Z,93.70
2019-05-06T01:40:20.023Z,93.90
2019-05-06T01:42:50.556Z,93.80
2019-05-06T01:45:19.641Z,94.00
2019-05-06T01:47:48.747Z,94.00
2019-05-06T01:50:19.485Z,94.30
2019-05-06T01:52:48.581Z,94.50
2019-05-06T01:55:17.676Z,94.60
2019-05-06T01:57:48.197Z,94.60
2019-05-06T02:00:17.377Z,94.60
2019-05-06T02:02:46.603Z,94.70
2019-05-06T02:05:15.711Z,94.80
2019-05-06T02:07:44.641Z,94.80
2019-05-06T02:10:14.213Z,94.90
2019-05-06T02:12:44.347Z,94.70
2019-05-06T02:15:15.163Z,94.90
2019-05-06T02:17:44.220Z,95.20
2019-05-06T02:20:13.801Z,95.10
2019-05-06T02:22:46.056Z,95.30
2019-05-06T02:25:16.676Z,95.50
2019-05-06T02:27:45.570Z,95.50
2019-05-06T02:30:19.283Z,95.70
2019-05-06T02:32:49.804Z,95.80
2019-05-06T02:35:26.649Z,95.90
2019-05-06T02:37:55.725Z,96.10
2019-05-06T02:40:27.414Z,96.10
2019-05-06T02:42:56.389Z,95.90
2019-05-06T02:45:25.540Z,95.90
2019-05-06T02:48:05.315Z,95.90
2019-05-06T02:50:47.474Z,95.60
2019-05-06T02:53:17.982Z,96.20
2019-05-06T02:55:46.937Z,95.60
2019-05-06T02:58:16.484Z,95.60
2019-05-06T03:00:45.393Z,96.10
2019-05-06T03:03:15.717Z,95.80
2019-05-06T03:05:44.670Z,96.30
2019-05-06T03:08:13.816Z,95.90
2019-05-06T03:10:44.198Z,96.30
2019-05-06T03:13:14.370Z,96.30
2019-05-06T03:15:43.835Z,96.30
2019-05-06T03:18:15.692Z,96.50
2019-05-06T03:20:59.486Z,96.70
2019-05-06T03:23:45.318Z,96.50
2019-05-06T03:26:14.230Z,96.80
2019-05-06T03:28:44.026Z,96.70
2019-05-06T03:31:16.513Z,96.40
2019-05-06T03:34:03.602Z,96.30
2019-05-06T03:36:24.610Z,96.30
2019-05-06T03:38:45.115Z,96.60
2019-05-06T03:41:14.182Z,96.60
2019-05-06T03:43:43.716Z,96.60
2019-05-06T03:46:23.370Z,97.00
2019-05-06T03:49:00.235Z,96.90
2019-05-06T03:51:29.179Z,96.90
2019-05-06T03:54:03.266Z,97.00
2019-05-06T03:56:33.722Z,97.10
2019-05-06T03:59:02.893Z,96.80
2019-05-06T04:01:33.615Z,97.00
2019-05-06T04:04:03.665Z,97.10
2019-05-06T04:06:33.538Z,97.20
2019-05-06T04:09:05.224Z,97.20
2019-05-06T04:11:36.368Z,96.80
2019-05-06T04:14:06.953Z,96.90
2019-05-06T04:16:53.529Z,96.70
2019-05-06T04:19:24.649Z,97.20
2019-05-06T04:22:13.815Z,96.80
2019-05-06T04:24:54.039Z,96.80
2019-05-06T04:27:33.868Z,96.60
2019-05-06T04:30:04.724Z,96.60
2019-05-06T04:32:34.302Z,96.70
2019-05-06T04:35:04.608Z,96.70
2019-05-06T04:37:34.240Z,97.00
2019-05-06T04:40:04.496Z,96.80
2019-05-06T04:42:34.651Z,96.60
2019-05-06T04:45:04.834Z,96.50
2019-05-06T04:47:33.980Z,96.30
2019-05-06T04:50:04.999Z,96.40
2019-05-06T04:52:34.460Z,96.20
2019-05-06T04:55:04.223Z,96.10
2019-05-06T04:57:33.804Z,96.30
2019-05-06T05:00:04.273Z,96.20
2019-05-06T05:02:33.934Z,96.10
2019-05-06T05:05:04.116Z,96.00
2019-05-06T05:07:33.807Z,96.10
2019-05-06T05:10:04.809Z,96.10
2019-05-06T05:12:53.703Z,95.90
2019-05-06T05:15:33.449Z,95.80
2019-05-06T05:18:19.132Z,95.80
2019-05-06T05:20:48.330Z,95.60
2019-05-06T05:23:19.150Z,95.50
2019-05-06T05:25:48.163Z,95.40
2019-05-06T05:28:17.771Z,95.30
2019-05-06T05:30:46.972Z,95.20
2019-05-06T05:33:16.196Z,95.30
2019-05-06T05:35:45.676Z,95.00
2019-05-06T05:38:15.076Z,94.90
2019-05-06T05:40:44.687Z,95.00
2019-05-06T05:43:18.294Z,94.70
2019-05-06T05:45:47.941Z,94.60
2019-05-06T05:48:18.942Z,94.50
2019-05-06T05:50:47.959Z,94.40
2019-05-06T05:53:17.150Z,94.40
2019-05-06T05:55:46.509Z,94.40
2019-05-06T05:58:15.397Z,94.40
2019-05-06T06:00:44.631Z,94.50
2019-05-06T06:03:13.645Z,94.30
2019-05-06T06:05:43.020Z,94.20
2019-05-06T06:08:12.961Z,94.20
2019-05-06T06:10:56.271Z,94.00
2019-05-06T06:13:25.475Z,94.10
2019-05-06T06:16:12.921Z,93.90
2019-05-06T06:18:46.188Z,94.00
2019-05-06T06:21:33.210Z,93.70
2019-05-06T06:24:03.722Z,93.20
2019-05-06T06:26:32.726Z,93.00
2019-05-06T06:29:03.307Z,92.80
2019-05-06T06:31:52.295Z,92.30
2019-05-06T06:34:28.792Z,92.50
2019-05-06T06:36:59.390Z,92.10
2019-05-06T06:39:32.543Z,91.30
2019-05-06T06:42:02.870Z,91.70
2019-05-06T06:44:33.317Z,91.10
2019-05-06T06:47:02.777Z,90.90
2019-05-06T06:49:32.874Z,91.00
2019-05-06T06:52:02.706Z,91.00
2019-05-06T06:54:32.357Z,90.90
2019-05-06T06:57:08.708Z,90.50
2019-05-06T06:59:49.862Z,90.50
2019-05-06T07:02:23.016Z,90.30
2019-05-06T07:04:57.188Z,89.40
2019-05-06T07:07:40.358Z,90.00
2019-05-06T07:09:58.538Z,90.50
2019-05-06T07:12:27.452Z,90.40
2019-05-06T07:15:02.771Z,89.70
2019-05-06T07:17:32.830Z,90.30
2019-05-06T07:20:15.811Z,90.60
2019-05-06T07:22:52.957Z,90.30
2019-05-06T07:25:22.635Z,90.40
2019-05-06T07:27:52.953Z,90.50
2019-05-06T07:30:23.540Z,90.50
2019-05-06T07:32:52.862Z,90.40
2019-05-06T07:35:23.818Z,89.80
2019-05-06T07:37:53.040Z,88.60
2019-05-06T07:40:22.148Z,87.90
2019-05-06T07:42:52.769Z,87.80
2019-05-06T07:45:26.060Z,87.90
2019-05-06T07:47:58.415Z,84.80
2019-05-06T07:50:27.311Z,86.60
2019-05-06T07:53:08.404Z,87.10
2019-05-06T07:55:38.104Z,87.00
2019-05-06T07:58:07.216Z,87.10
2019-05-06T08:00:36.682Z,87.50
2019-05-06T08:03:05.780Z,86.70
2019-05-06T08:05:34.873Z,85.90
2019-05-06T08:08:04.379Z,84.00
2019-05-06T08:10:33.528Z,82.40
2019-05-06T08:13:02.953Z,82.20
2019-05-06T08:15:32.948Z,82.40
2019-05-06T08:18:03.312Z,83.30
2019-05-06T08:20:38.877Z,82.30
2019-05-06T08:23:13.848Z,83.10
2019-05-06T08:25:46.792Z,82.90
2019-05-06T08:28:15.787Z,82.50
2019-05-06T08:30:44.885Z,83.60
2019-05-06T08:33:13.885Z,82.10
2019-05-06T08:35:42.873Z,81.40
2019-05-06T08:38:12.471Z,81.90
2019-05-06T08:40:43.095Z,83.60
2019-05-06T08:43:13.062Z,83.70
2019-05-06T08:45:43.442Z,79.60
2019-05-06T08:48:13.048Z,79.20
2019-05-06T08:50:46.871Z,78.60
2019-05-06T08:53:17.406Z,78.50
2019-05-06T08:55:47.882Z,77.10
2019-05-06T08:58:16.930Z,77.40
2019-05-06T09:00:50.222Z,74.70
2019-05-06T09:03:22.323Z,72.00
2019-05-06T09:05:53.076Z,73.80
2019-05-06T09:08:23.703Z,74.30
2019-05-06T09:10:53.392Z,74.20
2019-05-06T09:13:26.171Z,73.30
2019-05-06T09:15:55.100Z,75.20
2019-05-06T09:18:24.228Z,73.80
2019-05-06T09:20:55.732Z,74.40
2019-05-06T09:23:43.995Z,71.90
2019-05-06T09:26:14.574Z,72.30
2019-05-06T09:28:48.229Z,70.90
2019-05-06T09:31:18.737Z,68.70
2019-05-06T09:33:58.193Z,70.40
2019-05-06T09:36:41.249Z,73.10
2019-05-06T09:39:02.293Z,73.20
2019-05-06T09:41:32.549Z,70.30
2019-05-06T09:44:03.095Z,71.10
2019-05-06T09:46:32.401Z,72.50
2019-05-06T09:49:03.436Z,70.60
2019-05-06T09:51:32.545Z,67.20
2019-05-06T09:54:12.877Z,63.20
2019-05-06T09:56:46.336Z,64.00
2019-05-06T09:59:16.839Z,62.20
2019-05-06T10:01:45.796Z,60.70
2019-05-06T10:04:14.699Z,61.30
2019-05-06T10:06:56.512Z,60.50
2019-05-06T10:09:17.393Z,62.20
2019-05-06T10:11:46.319Z,60.80
2019-05-06T10:14:15.347Z,60.90
2019-05-06T10:16:44.225Z,59.20
2019-05-06T10:19:13.380Z,60.30
2019-05-06T10:21:42.844Z,59.10
2019-05-06T10:24:11.918Z,59.60
2019-05-06T10:26:43.165Z,60.80
2019-05-06T10:29:36.934Z,65.40
2019-05-06T10:32:22.690Z,67.60
2019-05-06T10:35:02.802Z,64.90
2019-05-06T10:37:54.407Z,64.80
2019-05-06T10:40:38.842Z,64.10
2019-05-06T10:43:15.017Z,64.50
2019-05-06T10:45:44.115Z,63.80
2019-05-06T10:48:13.211Z,63.30
2019-05-06T10:50:43.845Z,62.80
2019-05-06T10:53:23.040Z,61.80
2019-05-06T10:56:02.151Z,60.10
2019-05-06T10:58:32.637Z,61.80
2019-05-06T11:01:09.311Z,65.50
2019-05-06T11:03:38.397Z,66.80
2019-05-06T11:06:07.504Z,67.20
2019-05-06T11:08:36.604Z,66.80
2019-05-06T11:11:15.287Z,68.50
2019-05-06T11:13:36.350Z,69.00
2019-05-06T11:16:05.532Z,67.90
2019-05-06T11:18:34.529Z,69.40
2019-05-06T11:21:03.700Z,66.60
2019-05-06T11:23:33.780Z,60.60
2019-05-06T11:26:03.371Z,57.10
2019-05-06T11:28:45.871Z,58.80
2019-05-06T11:31:33.422Z,57.00
2019-05-06T11:34:16.631Z,56.00
2019-05-06T11:36:53.495Z,55.70
2019-05-06T11:39:23.266Z,59.90
2019-05-06T11:42:06.438Z,59.10
2019-05-06T11:44:24.059Z,58.10
2019-05-06T11:46:53.086Z,57.50
2019-05-06T11:49:23.243Z,56.70
2019-05-06T11:51:52.488Z,56.20
2019-05-06T11:54:24.346Z,57.40
2019-05-06T11:56:57.817Z,59.70
2019-05-06T11:59:24.762Z,58.40
2019-05-06T12:02:02.594Z,54.80
2019-05-06T12:04:32.877Z,51.10
2019-05-06T12:07:10.206Z,52.00
2019-05-06T12:09:33.415Z,52.80
2019-05-06T12:12:03.299Z,55.20
2019-05-06T12:14:32.570Z,57.00
2019-05-06T12:17:02.234Z,58.30
2019-05-06T12:19:32.439Z,58.80
2019-05-06T12:22:01.793Z,60.50
2019-05-06T12:24:31.480Z,61.20
2019-05-06T12:27:03.044Z,56.90
2019-05-06T12:29:32.360Z,55.90
2019-05-06T12:32:08.843Z,55.10
2019-05-06T12:34:37.951Z,56.00
2019-05-06T12:37:08.597Z,57.80
2019-05-06T12:39:37.590Z,59.90
2019-05-06T12:42:17.413Z,62.00
2019-05-06T12:44:48.045Z,63.40
2019-05-06T12:47:24.519Z,64.30
2019-05-06T12:49:53.627Z,65.20
2019-05-06T12:52:23.230Z,65.10
2019-05-06T12:54:54.227Z,64.80
2019-05-06T12:57:23.471Z,62.00
2019-05-06T12:59:53.047Z,60.80
2019-05-06T13:02:23.757Z,61.40
2019-05-06T13:05:05.614Z,58.60
2019-05-06T13:07:42.286Z,57.80
2019-05-06T13:10:13.014Z,55.50
2019-05-06T13:12:42.723Z,54.20
2019-05-06T13:15:13.272Z,53.20
2019-05-06T13:17:42.660Z,50.10
2019-05-06T13:20:14.701Z,49.80
2019-05-06T13:22:47.265Z,47.50
2019-05-06T13:25:16.469Z,46.60
2019-05-06T13:27:45.998Z,46.80
2019-05-06T13:30:15.431Z,47.50
2019-05-06T13:32:45.933Z,46.60
2019-05-06T13:35:15.030Z,48.70
2019-05-06T13:37:43.971Z,49.00
2019-05-06T13:40:13.655Z,49.80
2019-05-06T13:42:44.279Z,50.30
2019-05-06T13:45:13.308Z,49.20
2019-05-06T13:47:46.776Z,49.70
2019-05-06T13:50:17.853Z,46.90
2019-05-06T13:52:48.322Z,46.70
2019-05-06T13:55:17.215Z,44.70
2019-05-06T13:57:46.148Z,40.30
2019-05-06T14:00:15.324Z,42.70
2019-05-06T14:02:48.555Z,42.20
2019-05-06T14:05:18.218Z,43.60
2019-05-06T14:07:47.148Z,45.60
2019-05-06T14:10:17.100Z,48.60
2019-05-06T14:12:46.024Z,49.70
2019-05-06T14:15:17.415Z,49.00
2019-05-06T14:17:46.330Z,51.20
2019-05-06T14:20:15.532Z,51.40
2019-05-06T14:22:44.421Z,51.40
2019-05-06T14:25:32.930Z,52.70
2019-05-06T14:28:05.653Z,51.40
2019-05-06T14:30:42.957Z,46.50
2019-05-06T14:33:15.567Z,45.70
2019-05-06T14:35:44.310Z,44.70
2019-05-06T14:38:13.694Z,43.10
2019-05-06T14:41:07.086Z,43.50
2019-05-06T14:43:34.246Z,45.50
2019-05-06T14:46:03.206Z,48.90
2019-05-06T14:48:33.096Z,50.30
2019-05-06T14:51:02.437Z,52.40
2019-05-06T14:53:33.042Z,51.90
2019-05-06T14:56:15.434Z,51.90
2019-05-06T14:58:46.089Z,51.70
2019-05-06T15:01:15.256Z,50.00
2019-05-06T15:03:44.338Z,50.20
2019-05-06T15:06:13.237Z,51.20
2019-05-06T15:08:42.873Z,49.40
2019-05-06T15:11:12.273Z,44.70
2019-05-06T15:13:42.742Z,46.20
2019-05-06T15:16:13.221Z,47.50
2019-05-06T15:18:42.539Z,45.40
2019-05-06T15:21:30.112Z,43.80
2019-05-06T15:23:42.839Z,43.00
2019-05-06T15:26:12.323Z,43.20
2019-05-06T15:28:42.554Z,43.70
2019-05-06T15:31:16.378Z,42.00
2019-05-06T15:33:59.036Z,40.00
2019-05-06T15:36:32.776Z,40.10
2019-05-06T15:39:02.493Z,39.00
2019-05-06T15:41:32.290Z,39.20
2019-05-06T15:44:03.060Z,42.20
2019-05-06T15:46:32.330Z,41.90
2019-05-06T15:49:03.013Z,42.50
2019-05-06T15:51:35.397Z,41.50
2019-05-06T15:54:05.610Z,41.90
2019-05-06T15:56:34.771Z,42.60
2019-05-06T15:59:04.789Z,41.60
2019-05-06T16:01:34.360Z,43.60
2019-05-06T16:04:03.560Z,46.30
2019-05-06T16:06:33.280Z,47.10
2019-05-06T16:09:04.846Z,47.70
2019-05-06T16:11:33.733Z,49.10
2019-05-06T16:14:07.538Z,48.20
2019-05-06T16:16:36.657Z,48.20
2019-05-06T16:19:06.210Z,47.60
2019-05-06T16:21:35.390Z,48.10
2019-05-06T16:24:12.558Z,48.20
2019-05-06T16:26:45.291Z,47.80
2019-05-06T16:29:13.197Z,46.20
2019-05-06T16:31:42.382Z,44.60
2019-05-06T16:34:12.046Z,42.90
2019-05-06T16:36:43.150Z,41.60
2019-05-06T16:39:12.474Z,39.20
2019-05-06T16:41:44.592Z,37.70
2019-05-06T16:44:13.400Z,40.50
2019-05-06T16:46:42.759Z,40.60
2019-05-06T16:49:14.106Z,41.70
2019-05-06T16:51:44.224Z,44.20
2019-05-06T16:54:13.502Z,45.30
2019-05-06T16:56:52.833Z,42.60
2019-05-06T16:59:23.601Z,39.50
2019-05-06T17:01:52.352Z,38.10
2019-05-06T17:04:23.713Z,40.90
2019-05-06T17:06:53.820Z,40.50
2019-05-06T17:09:27.001Z,42.30
2019-05-06T17:11:53.287Z,42.00
2019-05-06T17:14:22.631Z,41.20
2019-05-06T17:16:52.675Z,41.40
2019-05-06T17:19:23.028Z,41.90
2019-05-06T17:21:52.554Z,40.70
2019-05-06T17:24:22.342Z,39.00
2019-05-06T17:26:55.607Z,39.50
2019-05-06T17:29:42.643Z,40.00
2019-05-06T17:32:12.584Z,40.10
2019-05-06T17:34:43.058Z,41.40
2019-05-06T17:37:29.653Z,38.90
2019-05-06T17:40:08.087Z,38.60
2019-05-06T17:42:29.456Z,39.00
2019-05-06T17:44:58.572Z,38.00
2019-05-06T17:47:29.117Z,38.80
2019-05-06T17:49:58.155Z,40.00
2019-05-06T17:52:27.549Z,41.10
2019-05-06T17:54:58.173Z,41.10
2019-05-06T17:57:27.405Z,40.80
2019-05-06T17:59:57.084Z,39.10
2019-05-06T18:02:27.590Z,39.70
2019-05-06T18:04:56.619Z,39.90
2019-05-06T18:07:25.615Z,39.80
2019-05-06T18:09:54.605Z,40.80
2019-05-06T18:12:23.621Z,41.90
2019-05-06T18:14:53.430Z,40.90
2019-05-06T18:17:22.939Z,40.50
2019-05-06T18:19:52.280Z,39.00
2019-05-06T18:22:22.689Z,40.00
2019-05-06T18:24:52.564Z,39.10
2019-05-06T18:27:22.630Z,39.40
2019-05-06T18:29:53.275Z,37.20
2019-05-06T18:32:23.462Z,37.30
2019-05-06T18:34:52.822Z,39.90
2019-05-06T18:37:23.354Z,43.10
2019-05-06T18:39:53.077Z,45.30
2019-05-06T18:42:23.624Z,47.40
2019-05-06T18:44:53.058Z,48.50
2019-05-06T18:47:22.002Z,48.60
2019-05-06T18:49:52.366Z,51.00
2019-05-06T18:52:22.906Z,50.80
2019-05-06T18:54:52.497Z,50.60
2019-05-06T18:57:28.113Z,51.20
2019-05-06T18:59:57.039Z,52.00
2019-05-06T19:02:29.214Z,52.30
2019-05-06T19:05:04.184Z,52.20
2019-05-06T19:07:33.310Z,52.70
2019-05-06T19:10:06.829Z,53.20
2019-05-06T19:12:40.609Z,52.90
2019-05-06T19:15:06.759Z,53.70
2019-05-06T19:17:38.629Z,54.30
2019-05-06T19:20:08.387Z,54.40
2019-05-06T19:22:38.973Z,54.70
2019-05-06T19:25:08.495Z,55.60
2019-05-06T19:27:37.757Z,55.60
2019-05-06T19:30:07.636Z,56.50
2019-05-06T19:32:37.111Z,56.70
2019-05-06T19:35:06.541Z,57.50
2019-05-06T19:37:36.080Z,58.20
2019-05-06T19:40:06.407Z,60.90
2019-05-06T19:42:46.333Z,62.30
2019-05-06T19:45:09.205Z,63.70
2019-05-06T19:47:38.508Z,65.30
2019-05-06T19:50:07.507Z,66.40
2019-05-06T19:52:36.783Z,65.80
2019-05-06T19:55:08.012Z,66.80
2019-05-06T19:57:38.383Z,68.10
2019-05-06T20:00:10.389Z,68.40
2019-05-06T20:02:39.436Z,67.50
2019-05-06T20:05:25.622Z,69.60
2019-05-06T20:07:56.232Z,69.60
2019-05-06T20:10:29.520Z,70.60
2019-05-06T20:13:05.430Z,70.90
2019-05-06T20:15:35.636Z,71.10
2019-05-06T20:18:06.301Z,71.70
2019-05-06T20:20:38.285Z,72.80
2019-05-06T20:23:07.853Z,72.70
2019-05-06T20:25:38.030Z,73.80
2019-05-06T20:28:07.472Z,74.50
2019-05-06T20:30:36.721Z,74.60
2019-05-06T20:33:06.318Z,75.20
2019-05-06T20:35:35.294Z,75.80
2019-05-06T20:38:04.727Z,76.30
2019-05-06T20:40:35.298Z,76.20
2019-05-06T20:43:16.530Z,77.50
2019-05-06T20:45:36.098Z,78.50
2019-05-06T20:48:05.674Z,79.10
2019-05-06T20:50:55.562Z,79.30
2019-05-06T20:53:24.476Z,80.40
2019-05-06T20:55:53.679Z,80.70
2019-05-06T20:58:23.118Z,81.40
2019-05-06T21:00:52.363Z,81.50
2019-05-06T21:03:22.119Z,82.50
2019-05-06T21:05:53.209Z,81.90
2019-05-06T21:08:22.918Z,83.80
2019-05-06T21:10:52.936Z,83.00
2019-05-06T21:13:31.401Z,84.10
2019-05-06T21:15:53.275Z,84.20
2019-05-06T21:18:22.895Z,85.30
2019-05-06T21:20:52.403Z,85.00
2019-05-06T21:23:22.671Z,85.90
2019-05-06T21:25:52.449Z,86.40
2019-05-06T21:28:23.688Z,87.40
2019-05-06T21:30:52.465Z,87.50
2019-05-06T21:33:22.136Z,87.60
2019-05-06T21:35:52.689Z,89.00
2019-05-06T21:38:22.776Z,89.00
2019-05-06T21:40:52.573Z,89.40
2019-05-06T21:43:22.699Z,89.60
2019-05-06T21:45:54.117Z,89.60
2019-05-06T21:48:24.765Z,89.20
2019-05-06T21:50:54.641Z,89.10
2019-05-06T21:53:23.979Z,89.80
2019-05-06T21:55:53.101Z,89.80
2019-05-06T21:58:23.142Z,90.00
2019-05-06T22:00:58.102Z,90.00
2019-05-06T22:03:27.230Z,89.70
2019-05-06T22:05:56.187Z,90.10
2019-05-06T22:08:25.298Z,90.20
2019-05-06T22:10:54.495Z,90.50
2019-05-06T22:13:23.587Z,90.70
2019-05-06T22:15:52.684Z,90.70
2019-05-06T22:18:22.891Z,91.10
2019-05-06T22:21:08.692Z,90.90
2019-05-06T22:23:55.987Z,91.00
2019-05-06T22:26:25.109Z,91.30
2019-05-06T22:28:54.116Z,91.50
2019-05-06T22:31:24.405Z,91.10
2019-05-06T22:33:53.938Z,90.60
2019-05-06T22:36:23.240Z,90.90
2019-05-06T22:38:53.037Z,90.60
2019-05-06T22:41:23.324Z,90.50
2019-05-06T22:43:53.264Z,90.70
2019-05-06T22:46:23.396Z,91.20
2019-05-06T22:48:54.451Z,91.60
2019-05-06T22:51:23.861Z,91.50
2019-05-06T22:53:53.384Z,91.40
2019-05-06T22:56:23.055Z,91.50
2019-05-06T22:58:52.606Z,91.60
2019-05-06T23:01:39.598Z,91.70
2019-05-06T23:04:09.257Z,91.80
2019-05-06T23:06:38.817Z,91.40
2019-05-06T23:09:09.458Z,91.80
2019-05-06T23:11:39.056Z,91.90
2019-05-06T23:14:08.155Z,92.10
2019-05-06T23:16:37.354Z,92.30
2019-05-06T23:19:06.238Z,92.40
2019-05-06T23:21:35.344Z,92.30
2019-05-06T23:24:04.449Z,92.40
2019-05-06T23:26:33.635Z,92.50
2019-05-06T23:29:02.706Z,92.30
2019-05-06T23:31:33.265Z,91.90
2019-05-06T23:34:04.986Z,92.40
2019-05-06T23:37:02.395Z,92.50
2019-05-06T23:40:08.342Z,92.00
2019-05-06T23:43:13.587Z,92.50
2019-05-06T23:46:18.874Z,93.20
2019-05-06T23:49:24.126Z,93.50
2019-05-06T23:52:29.142Z,94.20
2019-05-06T23:55:34.539Z,93.80
2019-05-06T23:58:02.223Z,94.10
